sensor_id;sensor_type;location;lat;lon;timestamp;temperature;humidity
6407;DHT22;3236;51.022;6.818;2023-02-28T00:00:13;0.10;99.90
6407;DHT22;3236;51.022;6.818;2023-02-28T00:02:44;0.00;99.90
6407;DHT22;3236;51.022;6.818;2023-02-28T00:05:13;-0.30;99.90
6407;DHT22;3236;51.022;6.818;2023-02-28T00:10:11;0.00;99.90
6407;DHT22;3236;51.022;6.818;2023-02-28T00:12:38;-0.20;99.90
6407;DHT22;3236;51.022;6.818;2023-02-28T00:15:07;-0.20;99.90
6407;DHT22;3236;51.022;6.818;2023-02-28T00:17:37;-0.20;99.90
6407;DHT22;3236;51.022;6.818;2023-02-28T00:20:07;-0.50;99.90
6407;DHT22;3236;51.022;6.818;2023-02-28T00:22:38;-0.30;99.90
6407;DHT22;3236;51.022;6.818;2023-02-28T00:25:06;-0.20;99.90
6407;DHT22;3236;51.022;6.818;2023-02-28T00:27:34;-0.40;99.90
6407;DHT22;3236;51.022;6.818;2023-02-28T00:30:03;-0.20;99.90
6407;DHT22;3236;51.022;6.818;2023-02-28T00:32:31;-0.40;99.90
6407;DHT22;3236;51.022;6.818;2023-02-28T00:37:27;-0.50;99.90
6407;DHT22;3236;51.022;6.818;2023-02-28T00:39:54;-0.70;99.90
6407;DHT22;3236;51.022;6.818;2023-02-28T00:42:21;-0.30;99.90
6407;DHT22;3236;51.022;6.818;2023-02-28T00:44:48;-0.20;99.90
6407;DHT22;3236;51.022;6.818;2023-02-28T00:47:15;-0.50;99.90
6407;DHT22;3236;51.022;6.818;2023-02-28T00:49:43;-0.80;99.90
6407;DHT22;3236;51.022;6.818;2023-02-28T00:52:10;-0.70;99.90
6407;DHT22;3236;51.022;6.818;2023-02-28T00:57:09;-0.80;99.90
6407;DHT22;3236;51.022;6.818;2023-02-28T01:02:03;-0.90;99.90
6407;DHT22;3236;51.022;6.818;2023-02-28T01:04:30;-0.80;99.90
6407;DHT22;3236;51.022;6.818;2023-02-28T01:06:57;-0.80;99.90
6407;DHT22;3236;51.022;6.818;2023-02-28T01:09:24;-0.60;99.90
6407;DHT22;3236;51.022;6.818;2023-02-28T01:11:53;-0.60;99.90
6407;DHT22;3236;51.022;6.818;2023-02-28T01:14:20;-0.70;99.90
6407;DHT22;3236;51.022;6.818;2023-02-28T01:16:47;-0.40;99.90
6407;DHT22;3236;51.022;6.818;2023-02-28T01:19:14;-0.80;99.90
6407;DHT22;3236;51.022;6.818;2023-02-28T01:21:41;-0.70;99.90
6407;DHT22;3236;51.022;6.818;2023-02-28T01:24:08;-0.90;99.90
6407;DHT22;3236;51.022;6.818;2023-02-28T01:26:35;-0.90;99.90
6407;DHT22;3236;51.022;6.818;2023-02-28T01:29:04;-0.50;99.90
6407;DHT22;3236;51.022;6.818;2023-02-28T01:31:34;-0.90;99.90
6407;DHT22;3236;51.022;6.818;2023-02-28T01:36:32;-0.80;99.90
6407;DHT22;3236;51.022;6.818;2023-02-28T01:41:33;-0.80;99.90
6407;DHT22;3236;51.022;6.818;2023-02-28T01:44:02;-0.60;99.90
6407;DHT22;3236;51.022;6.818;2023-02-28T01:46:32;-0.90;99.90
6407;DHT22;3236;51.022;6.818;2023-02-28T01:49:04;-0.70;99.90
6407;DHT22;3236;51.022;6.818;2023-02-28T01:51:39;-0.80;99.90
6407;DHT22;3236;51.022;6.818;2023-02-28T01:54:13;-1.10;99.90
6407;DHT22;3236;51.022;6.818;2023-02-28T01:56:44;-0.60;99.90
6407;DHT22;3236;51.022;6.818;2023-02-28T01:59:21;-0.80;99.90
6407;DHT22;3236;51.022;6.818;2023-02-28T02:01:50;-0.70;99.90
6407;DHT22;3236;51.022;6.818;2023-02-28T02:04:17;-1.10;99.90
6407;DHT22;3236;51.022;6.818;2023-02-28T02:06:47;-0.80;99.90
6407;DHT22;3236;51.022;6.818;2023-02-28T02:09:24;-1.10;99.90
6407;DHT22;3236;51.022;6.818;2023-02-28T02:11:51;-1.20;99.90
6407;DHT22;3236;51.022;6.818;2023-02-28T02:14:35;-0.60;99.90
6407;DHT22;3236;51.022;6.818;2023-02-28T02:17:14;-1.10;99.90
6407;DHT22;3236;51.022;6.818;2023-02-28T02:25:58;-1.00;99.90
6407;DHT22;3236;51.022;6.818;2023-02-28T02:28:44;-0.80;99.90
6407;DHT22;3236;51.022;6.818;2023-02-28T02:31:39;-0.90;99.90
6407;DHT22;3236;51.022;6.818;2023-02-28T02:34:37;-0.90;99.90
6407;DHT22;3236;51.022;6.818;2023-02-28T02:37:13;-0.90;99.90
6407;DHT22;3236;51.022;6.818;2023-02-28T02:39:47;-0.90;99.90
6407;DHT22;3236;51.022;6.818;2023-02-28T02:42:20;-1.00;99.90
6407;DHT22;3236;51.022;6.818;2023-02-28T02:44:53;-1.10;99.90
6407;DHT22;3236;51.022;6.818;2023-02-28T02:47:24;-0.90;99.90
6407;DHT22;3236;51.022;6.818;2023-02-28T02:49:55;-0.90;99.90
6407;DHT22;3236;51.022;6.818;2023-02-28T02:52:25;-0.90;99.90
6407;DHT22;3236;51.022;6.818;2023-02-28T02:54:55;-0.80;99.90
6407;DHT22;3236;51.022;6.818;2023-02-28T02:57:26;-0.80;99.90
6407;DHT22;3236;51.022;6.818;2023-02-28T02:59:56;-1.20;99.90
6407;DHT22;3236;51.022;6.818;2023-02-28T03:02:24;-0.80;99.90
6407;DHT22;3236;51.022;6.818;2023-02-28T03:04:56;-0.10;99.90
6407;DHT22;3236;51.022;6.818;2023-02-28T03:07:26;-0.80;99.90
6407;DHT22;3236;51.022;6.818;2023-02-28T03:09:55;-0.90;99.90
6407;DHT22;3236;51.022;6.818;2023-02-28T03:12:24;-0.90;99.90
6407;DHT22;3236;51.022;6.818;2023-02-28T03:14:58;-0.80;99.90
6407;DHT22;3236;51.022;6.818;2023-02-28T03:17:42;-1.10;99.90
6407;DHT22;3236;51.022;6.818;2023-02-28T03:20:18;-1.10;99.90
6407;DHT22;3236;51.022;6.818;2023-02-28T03:23:01;-1.30;99.90
6407;DHT22;3236;51.022;6.818;2023-02-28T03:25:34;-1.50;99.90
6407;DHT22;3236;51.022;6.818;2023-02-28T03:28:08;-1.40;99.90
6407;DHT22;3236;51.022;6.818;2023-02-28T03:30:45;-1.30;99.90
6407;DHT22;3236;51.022;6.818;2023-02-28T03:33:20;-1.40;99.90
6407;DHT22;3236;51.022;6.818;2023-02-28T03:35:52;-1.30;99.90
6407;DHT22;3236;51.022;6.818;2023-02-28T03:38:27;-1.10;99.90
6407;DHT22;3236;51.022;6.818;2023-02-28T03:41:00;-1.50;99.90
6407;DHT22;3236;51.022;6.818;2023-02-28T03:43:33;-1.40;99.90
6407;DHT22;3236;51.022;6.818;2023-02-28T03:46:06;-1.40;99.90
6407;DHT22;3236;51.022;6.818;2023-02-28T03:48:39;-1.30;99.90
6407;DHT22;3236;51.022;6.818;2023-02-28T03:51:12;-1.30;99.90
6407;DHT22;3236;51.022;6.818;2023-02-28T03:53:44;-1.30;99.90
6407;DHT22;3236;51.022;6.818;2023-02-28T03:56:15;-1.30;99.90
6407;DHT22;3236;51.022;6.818;2023-02-28T03:58:49;-1.30;99.90
6407;DHT22;3236;51.022;6.818;2023-02-28T04:01:21;-1.10;99.90
6407;DHT22;3236;51.022;6.818;2023-02-28T04:06:22;-1.40;99.90
6407;DHT22;3236;51.022;6.818;2023-02-28T04:08:49;-1.50;99.90
6407;DHT22;3236;51.022;6.818;2023-02-28T04:11:23;-1.20;99.90
6407;DHT22;3236;51.022;6.818;2023-02-28T04:13:50;-1.30;99.90
6407;DHT22;3236;51.022;6.818;2023-02-28T04:16:17;-1.40;99.90
6407;DHT22;3236;51.022;6.818;2023-02-28T04:18:44;-1.60;99.90
6407;DHT22;3236;51.022;6.818;2023-02-28T04:21:11;-1.40;99.90
6407;DHT22;3236;51.022;6.818;2023-02-28T04:26:10;-1.40;99.90
6407;DHT22;3236;51.022;6.818;2023-02-28T04:28:37;-1.50;99.90
6407;DHT22;3236;51.022;6.818;2023-02-28T04:31:05;-1.40;99.90
6407;DHT22;3236;51.022;6.818;2023-02-28T04:33:32;-1.10;99.90
6407;DHT22;3236;51.022;6.818;2023-02-28T04:36:01;-1.40;99.90
6407;DHT22;3236;51.022;6.818;2023-02-28T04:38:29;-1.50;99.90
6407;DHT22;3236;51.022;6.818;2023-02-28T04:40:58;-1.50;99.90
6407;DHT22;3236;51.022;6.818;2023-02-28T04:43:26;-1.50;99.90
6407;DHT22;3236;51.022;6.818;2023-02-28T04:45:53;-1.60;99.90
6407;DHT22;3236;51.022;6.818;2023-02-28T04:48:22;-1.30;99.90
6407;DHT22;3236;51.022;6.818;2023-02-28T04:55:45;-1.50;99.90
6407;DHT22;3236;51.022;6.818;2023-02-28T04:58:13;-1.60;99.90
6407;DHT22;3236;51.022;6.818;2023-02-28T05:00:41;-1.70;99.90
6407;DHT22;3236;51.022;6.818;2023-02-28T05:03:08;-1.70;99.90
6407;DHT22;3236;51.022;6.818;2023-02-28T05:05:36;-2.00;99.90
6407;DHT22;3236;51.022;6.818;2023-02-28T05:08:03;-1.90;99.90
6407;DHT22;3236;51.022;6.818;2023-02-28T05:10:30;-1.70;99.90
6407;DHT22;3236;51.022;6.818;2023-02-28T05:12:57;-2.00;99.90
6407;DHT22;3236;51.022;6.818;2023-02-28T05:15:26;-1.90;99.90
6407;DHT22;3236;51.022;6.818;2023-02-28T05:17:53;-2.00;99.90
6407;DHT22;3236;51.022;6.818;2023-02-28T05:20:20;-2.00;99.90
6407;DHT22;3236;51.022;6.818;2023-02-28T05:22:47;-2.10;99.90
6407;DHT22;3236;51.022;6.818;2023-02-28T05:25:18;-2.20;99.90
6407;DHT22;3236;51.022;6.818;2023-02-28T05:30:13;-1.90;99.90
6407;DHT22;3236;51.022;6.818;2023-02-28T05:35:12;-2.40;99.90
6407;DHT22;3236;51.022;6.818;2023-02-28T05:37:39;-2.70;99.90
6407;DHT22;3236;51.022;6.818;2023-02-28T05:40:07;-2.60;99.90
6407;DHT22;3236;51.022;6.818;2023-02-28T05:42:36;-2.80;99.90
6407;DHT22;3236;51.022;6.818;2023-02-28T05:45:03;-3.00;99.90
6407;DHT22;3236;51.022;6.818;2023-02-28T05:47:31;-2.50;99.90
6407;DHT22;3236;51.022;6.818;2023-02-28T05:49:59;-2.60;99.90
6407;DHT22;3236;51.022;6.818;2023-02-28T05:52:26;-2.60;99.90
6407;DHT22;3236;51.022;6.818;2023-02-28T05:54:53;-2.60;99.90
6407;DHT22;3236;51.022;6.818;2023-02-28T05:57:20;-2.20;99.90
6407;DHT22;3236;51.022;6.818;2023-02-28T05:59:47;-2.60;99.90
6407;DHT22;3236;51.022;6.818;2023-02-28T06:02:16;-2.20;99.90
6407;DHT22;3236;51.022;6.818;2023-02-28T06:04:43;-2.60;99.90
6407;DHT22;3236;51.022;6.818;2023-02-28T06:09:39;-2.40;99.90
6407;DHT22;3236;51.022;6.818;2023-02-28T06:12:07;-2.40;99.90
6407;DHT22;3236;51.022;6.818;2023-02-28T06:14:35;-2.20;99.90
6407;DHT22;3236;51.022;6.818;2023-02-28T06:17:03;-2.40;99.90
6407;DHT22;3236;51.022;6.818;2023-02-28T06:19:34;-2.10;99.90
6407;DHT22;3236;51.022;6.818;2023-02-28T06:22:02;-2.20;99.90
6407;DHT22;3236;51.022;6.818;2023-02-28T06:26:58;-2.10;99.90
6407;DHT22;3236;51.022;6.818;2023-02-28T06:31:57;-1.60;99.90
6407;DHT22;3236;51.022;6.818;2023-02-28T06:36:52;-1.80;99.90
6407;DHT22;3236;51.022;6.818;2023-02-28T06:39:19;-2.10;99.90
6407;DHT22;3236;51.022;6.818;2023-02-28T06:41:48;-1.80;99.90
6407;DHT22;3236;51.022;6.818;2023-02-28T06:44:17;-1.50;99.90
6407;DHT22;3236;51.022;6.818;2023-02-28T06:46:45;-1.50;99.90
6407;DHT22;3236;51.022;6.818;2023-02-28T06:49:12;-1.50;99.90
6407;DHT22;3236;51.022;6.818;2023-02-28T06:51:41;-1.60;99.90
6407;DHT22;3236;51.022;6.818;2023-02-28T06:54:11;-1.10;99.90
6407;DHT22;3236;51.022;6.818;2023-02-28T06:56:38;-1.40;99.90
6407;DHT22;3236;51.022;6.818;2023-02-28T06:59:07;-1.10;99.90
6407;DHT22;3236;51.022;6.818;2023-02-28T07:04:05;-0.70;99.90
6407;DHT22;3236;51.022;6.818;2023-02-28T07:06:33;-0.50;99.90
6407;DHT22;3236;51.022;6.818;2023-02-28T07:09:00;-0.60;99.90
6407;DHT22;3236;51.022;6.818;2023-02-28T07:11:28;-0.40;99.90
6407;DHT22;3236;51.022;6.818;2023-02-28T07:13:55;-0.40;99.90
6407;DHT22;3236;51.022;6.818;2023-02-28T07:16:25;-0.30;99.90
6407;DHT22;3236;51.022;6.818;2023-02-28T07:18:52;-0.30;99.90
6407;DHT22;3236;51.022;6.818;2023-02-28T07:23:47;0.00;99.90
6407;DHT22;3236;51.022;6.818;2023-02-28T07:26:16;0.00;99.90
6407;DHT22;3236;51.022;6.818;2023-02-28T07:28:44;0.00;99.90
6407;DHT22;3236;51.022;6.818;2023-02-28T07:31:12;0.20;99.90
6407;DHT22;3236;51.022;6.818;2023-02-28T07:36:11;0.10;99.90
6407;DHT22;3236;51.022;6.818;2023-02-28T07:38:41;0.40;99.90
6407;DHT22;3236;51.022;6.818;2023-02-28T07:41:09;0.20;99.90
6407;DHT22;3236;51.022;6.818;2023-02-28T07:43:38;0.80;99.90
6407;DHT22;3236;51.022;6.818;2023-02-28T07:46:07;0.50;99.90
6407;DHT22;3236;51.022;6.818;2023-02-28T07:51:03;0.70;99.90
6407;DHT22;3236;51.022;6.818;2023-02-28T07:53:33;1.00;99.90
6407;DHT22;3236;51.022;6.818;2023-02-28T07:56:01;0.70;99.90
6407;DHT22;3236;51.022;6.818;2023-02-28T07:58:29;0.90;99.90
6407;DHT22;3236;51.022;6.818;2023-02-28T08:05:53;0.90;99.90
6407;DHT22;3236;51.022;6.818;2023-02-28T08:08:21;1.20;99.90
6407;DHT22;3236;51.022;6.818;2023-02-28T08:10:49;1.40;99.90
6407;DHT22;3236;51.022;6.818;2023-02-28T08:13:17;1.50;99.90
6407;DHT22;3236;51.022;6.818;2023-02-28T08:15:44;1.60;99.90
6407;DHT22;3236;51.022;6.818;2023-02-28T08:18:13;2.00;99.90
6407;DHT22;3236;51.022;6.818;2023-02-28T08:20:40;1.80;99.90
6407;DHT22;3236;51.022;6.818;2023-02-28T08:23:07;1.80;99.90
6407;DHT22;3236;51.022;6.818;2023-02-28T08:25:35;1.60;99.90
6407;DHT22;3236;51.022;6.818;2023-02-28T08:28:03;1.80;99.90
6407;DHT22;3236;51.022;6.818;2023-02-28T08:30:33;1.90;99.90
6407;DHT22;3236;51.022;6.818;2023-02-28T08:33:00;2.20;99.90
6407;DHT22;3236;51.022;6.818;2023-02-28T08:35:28;2.00;99.90
6407;DHT22;3236;51.022;6.818;2023-02-28T08:37:55;2.10;99.90
6407;DHT22;3236;51.022;6.818;2023-02-28T08:42:51;2.30;99.90
6407;DHT22;3236;51.022;6.818;2023-02-28T08:45:18;2.60;99.90
6407;DHT22;3236;51.022;6.818;2023-02-28T08:47:47;2.50;99.90
6407;DHT22;3236;51.022;6.818;2023-02-28T08:57:37;2.50;99.90
6407;DHT22;3236;51.022;6.818;2023-02-28T09:02:34;2.70;99.90
6407;DHT22;3236;51.022;6.818;2023-02-28T09:05:01;2.60;99.90
6407;DHT22;3236;51.022;6.818;2023-02-28T09:09:55;3.20;99.90
6407;DHT22;3236;51.022;6.818;2023-02-28T09:12:24;3.00;97.10
6407;DHT22;3236;51.022;6.818;2023-02-28T09:17:20;3.20;99.80
6407;DHT22;3236;51.022;6.818;2023-02-28T09:22:15;3.10;97.90
6407;DHT22;3236;51.022;6.818;2023-02-28T09:37:02;3.10;97.20
6407;DHT22;3236;51.022;6.818;2023-02-28T09:39:29;3.60;97.90
6407;DHT22;3236;51.022;6.818;2023-02-28T09:41:57;3.60;97.80
6407;DHT22;3236;51.022;6.818;2023-02-28T09:44:30;3.60;95.30
6407;DHT22;3236;51.022;6.818;2023-02-28T09:47:01;3.50;95.30
6407;DHT22;3236;51.022;6.818;2023-02-28T09:49:37;3.30;97.10
6407;DHT22;3236;51.022;6.818;2023-02-28T09:52:07;3.50;96.90
6407;DHT22;3236;51.022;6.818;2023-02-28T09:54:36;3.30;96.90
6407;DHT22;3236;51.022;6.818;2023-02-28T09:57:07;4.00;97.40
6407;DHT22;3236;51.022;6.818;2023-02-28T09:59:59;3.70;97.20
6407;DHT22;3236;51.022;6.818;2023-02-28T10:05:36;3.90;94.60
6407;DHT22;3236;51.022;6.818;2023-02-28T10:08:11;4.00;95.00
6407;DHT22;3236;51.022;6.818;2023-02-28T10:10:41;4.00;94.40
6407;DHT22;3236;51.022;6.818;2023-02-28T10:13:17;3.90;95.80
6407;DHT22;3236;51.022;6.818;2023-02-28T10:15:50;4.00;95.60
6407;DHT22;3236;51.022;6.818;2023-02-28T10:18:21;4.00;94.10
6407;DHT22;3236;51.022;6.818;2023-02-28T10:23:27;4.10;94.40
6407;DHT22;3236;51.022;6.818;2023-02-28T10:25:58;4.30;93.40
6407;DHT22;3236;51.022;6.818;2023-02-28T10:28:28;4.30;93.40
6407;DHT22;3236;51.022;6.818;2023-02-28T10:30:57;4.40;94.00
6407;DHT22;3236;51.022;6.818;2023-02-28T10:33:28;4.40;93.90
6407;DHT22;3236;51.022;6.818;2023-02-28T10:35:57;4.50;92.30
6407;DHT22;3236;51.022;6.818;2023-02-28T10:38:27;4.40;95.30
6407;DHT22;3236;51.022;6.818;2023-02-28T10:41:05;4.70;95.90
6407;DHT22;3236;51.022;6.818;2023-02-28T10:43:35;4.60;95.50
6407;DHT22;3236;51.022;6.818;2023-02-28T10:46:05;4.60;94.60
6407;DHT22;3236;51.022;6.818;2023-02-28T10:48:41;4.50;94.00
6407;DHT22;3236;51.022;6.818;2023-02-28T10:51:11;4.70;92.60
6407;DHT22;3236;51.022;6.818;2023-02-28T10:53:46;5.10;94.40
6407;DHT22;3236;51.022;6.818;2023-02-28T10:56:17;4.60;93.50
6407;DHT22;3236;51.022;6.818;2023-02-28T10:58:49;5.30;92.10
6407;DHT22;3236;51.022;6.818;2023-02-28T11:01:19;5.30;93.20
6407;DHT22;3236;51.022;6.818;2023-02-28T11:03:46;4.80;92.40
6407;DHT22;3236;51.022;6.818;2023-02-28T11:06:17;5.10;92.30
6407;DHT22;3236;51.022;6.818;2023-02-28T11:08:48;4.70;91.60
6407;DHT22;3236;51.022;6.818;2023-02-28T11:11:16;5.00;91.90
6407;DHT22;3236;51.022;6.818;2023-02-28T11:16:13;5.10;90.20
6407;DHT22;3236;51.022;6.818;2023-02-28T11:18:44;5.00;92.70
6407;DHT22;3236;51.022;6.818;2023-02-28T11:21:26;4.90;92.40
6407;DHT22;3236;51.022;6.818;2023-02-28T11:23:58;5.60;92.30
6407;DHT22;3236;51.022;6.818;2023-02-28T11:26:39;5.90;89.10
6407;DHT22;3236;51.022;6.818;2023-02-28T11:29:16;7.30;83.30
6407;DHT22;3236;51.022;6.818;2023-02-28T11:34:26;7.70;85.30
6407;DHT22;3236;51.022;6.818;2023-02-28T11:36:57;8.00;80.70
6407;DHT22;3236;51.022;6.818;2023-02-28T11:39:25;7.90;85.20
6407;DHT22;3236;51.022;6.818;2023-02-28T11:42:12;9.10;79.50
6407;DHT22;3236;51.022;6.818;2023-02-28T11:47:48;8.60;73.40
6407;DHT22;3236;51.022;6.818;2023-02-28T11:50:32;8.80;79.60
6407;DHT22;3236;51.022;6.818;2023-02-28T11:53:10;8.50;74.20
6407;DHT22;3236;51.022;6.818;2023-02-28T11:58:26;9.50;78.40
6407;DHT22;3236;51.022;6.818;2023-02-28T12:01:22;9.90;75.60
6407;DHT22;3236;51.022;6.818;2023-02-28T12:04:04;9.30;69.60
6407;DHT22;3236;51.022;6.818;2023-02-28T12:06:40;8.60;74.60
6407;DHT22;3236;51.022;6.818;2023-02-28T12:09:23;8.80;69.20
6407;DHT22;3236;51.022;6.818;2023-02-28T12:11:57;8.80;70.60
6407;DHT22;3236;51.022;6.818;2023-02-28T12:14:47;8.90;69.80
6407;DHT22;3236;51.022;6.818;2023-02-28T12:17:30;9.70;71.90
6407;DHT22;3236;51.022;6.818;2023-02-28T12:20:05;9.30;66.40
6407;DHT22;3236;51.022;6.818;2023-02-28T12:22:39;9.40;67.80
6407;DHT22;3236;51.022;6.818;2023-02-28T12:28:27;9.20;64.50
6407;DHT22;3236;51.022;6.818;2023-02-28T12:31:00;9.50;63.80
6407;DHT22;3236;51.022;6.818;2023-02-28T12:33:32;9.60;64.40
6407;DHT22;3236;51.022;6.818;2023-02-28T12:36:08;9.40;64.50
6407;DHT22;3236;51.022;6.818;2023-02-28T12:38:41;10.20;64.40
6407;DHT22;3236;51.022;6.818;2023-02-28T12:41:14;10.60;61.90
6407;DHT22;3236;51.022;6.818;2023-02-28T12:43:45;10.50;63.70
6407;DHT22;3236;51.022;6.818;2023-02-28T12:46:17;10.50;63.90
6407;DHT22;3236;51.022;6.818;2023-02-28T12:48:50;10.60;63.60
6407;DHT22;3236;51.022;6.818;2023-02-28T12:51:21;10.30;64.90
6407;DHT22;3236;51.022;6.818;2023-02-28T12:54:07;10.80;64.10
6407;DHT22;3236;51.022;6.818;2023-02-28T12:56:45;10.50;70.00
6407;DHT22;3236;51.022;6.818;2023-02-28T12:59:23;9.90;69.30
6407;DHT22;3236;51.022;6.818;2023-02-28T13:02:00;10.10;69.20
6407;DHT22;3236;51.022;6.818;2023-02-28T13:04:43;9.40;63.70
6407;DHT22;3236;51.022;6.818;2023-02-28T13:07:49;9.90;64.10
6407;DHT22;3236;51.022;6.818;2023-02-28T13:12:53;9.70;62.20
6407;DHT22;3236;51.022;6.818;2023-02-28T13:15:24;9.80;63.40
6407;DHT22;3236;51.022;6.818;2023-02-28T13:17:55;10.00;62.70
6407;DHT22;3236;51.022;6.818;2023-02-28T13:20:25;10.10;63.20
6407;DHT22;3236;51.022;6.818;2023-02-28T13:22:54;10.40;62.30
6407;DHT22;3236;51.022;6.818;2023-02-28T13:25:52;10.60;65.20
6407;DHT22;3236;51.022;6.818;2023-02-28T13:34:40;11.00;58.40
6407;DHT22;3236;51.022;6.818;2023-02-28T13:37:33;10.80;58.00
6407;DHT22;3236;51.022;6.818;2023-02-28T13:42:49;11.00;60.20
6407;DHT22;3236;51.022;6.818;2023-02-28T13:45:24;11.10;57.70
6407;DHT22;3236;51.022;6.818;2023-02-28T13:59:01;12.90;52.40
6407;DHT22;3236;51.022;6.818;2023-02-28T14:10:24;13.80;50.60
6407;DHT22;3236;51.022;6.818;2023-02-28T14:28:12;13.00;51.20
6407;DHT22;3236;51.022;6.818;2023-02-28T14:30:52;13.10;54.90
6407;DHT22;3236;51.022;6.818;2023-02-28T14:33:26;13.00;54.00
6407;DHT22;3236;51.022;6.818;2023-02-28T14:36:08;13.00;49.60
6407;DHT22;3236;51.022;6.818;2023-02-28T14:38:42;13.10;51.20
6407;DHT22;3236;51.022;6.818;2023-02-28T14:41:17;13.80;51.20
6407;DHT22;3236;51.022;6.818;2023-02-28T14:46:28;14.50;49.40
6407;DHT22;3236;51.022;6.818;2023-02-28T14:51:27;14.90;52.50
6407;DHT22;3236;51.022;6.818;2023-02-28T14:53:59;14.60;47.00
6407;DHT22;3236;51.022;6.818;2023-02-28T14:56:32;15.10;49.50
6407;DHT22;3236;51.022;6.818;2023-02-28T15:11:48;15.30;47.10
6407;DHT22;3236;51.022;6.818;2023-02-28T15:14:21;14.50;51.30
6407;DHT22;3236;51.022;6.818;2023-02-28T15:16:52;15.20;51.10
6407;DHT22;3236;51.022;6.818;2023-02-28T15:19:24;15.40;51.90
6407;DHT22;3236;51.022;6.818;2023-02-28T15:21:56;15.50;50.60
6407;DHT22;3236;51.022;6.818;2023-02-28T15:24:33;14.90;45.80
6407;DHT22;3236;51.022;6.818;2023-02-28T15:27:06;15.80;46.60
6407;DHT22;3236;51.022;6.818;2023-02-28T15:29:42;16.10;49.80
6407;DHT22;3236;51.022;6.818;2023-02-28T15:32:24;14.70;45.60
6407;DHT22;3236;51.022;6.818;2023-02-28T15:34:51;14.60;45.70
6407;DHT22;3236;51.022;6.818;2023-02-28T15:37:37;13.50;53.00
6407;DHT22;3236;51.022;6.818;2023-02-28T15:40:13;13.40;49.20
6407;DHT22;3236;51.022;6.818;2023-02-28T15:42:58;13.60;48.50
6407;DHT22;3236;51.022;6.818;2023-02-28T15:45:41;13.40;47.80
6407;DHT22;3236;51.022;6.818;2023-02-28T15:48:18;13.00;51.60
6407;DHT22;3236;51.022;6.818;2023-02-28T15:50:50;11.90;54.00
6407;DHT22;3236;51.022;6.818;2023-02-28T15:53:21;10.40;55.00
6407;DHT22;3236;51.022;6.818;2023-02-28T15:55:56;9.70;55.10
6407;DHT22;3236;51.022;6.818;2023-02-28T15:58:27;9.00;56.10
6407;DHT22;3236;51.022;6.818;2023-02-28T16:01:16;8.50;54.20
6407;DHT22;3236;51.022;6.818;2023-02-28T16:03:47;8.10;61.40
6407;DHT22;3236;51.022;6.818;2023-02-28T16:06:33;7.60;57.70
6407;DHT22;3236;51.022;6.818;2023-02-28T16:09:02;7.00;63.00
6407;DHT22;3236;51.022;6.818;2023-02-28T16:11:29;6.90;63.50
6407;DHT22;3236;51.022;6.818;2023-02-28T16:13:58;7.30;64.70
6407;DHT22;3236;51.022;6.818;2023-02-28T16:16:26;6.50;64.60
6407;DHT22;3236;51.022;6.818;2023-02-28T16:18:53;6.80;66.00
6407;DHT22;3236;51.022;6.818;2023-02-28T16:21:21;6.70;66.70
6407;DHT22;3236;51.022;6.818;2023-02-28T16:23:49;6.30;67.80
6407;DHT22;3236;51.022;6.818;2023-02-28T16:26:21;6.00;68.20
6407;DHT22;3236;51.022;6.818;2023-02-28T16:28:49;6.00;68.00
6407;DHT22;3236;51.022;6.818;2023-02-28T16:31:17;6.00;64.80
6407;DHT22;3236;51.022;6.818;2023-02-28T16:33:45;6.00;70.60
6407;DHT22;3236;51.022;6.818;2023-02-28T16:36:16;6.10;71.90
6407;DHT22;3236;51.022;6.818;2023-02-28T16:38:44;5.80;66.90
6407;DHT22;3236;51.022;6.818;2023-02-28T16:41:17;5.60;70.40
6407;DHT22;3236;51.022;6.818;2023-02-28T16:43:47;5.40;72.30
6407;DHT22;3236;51.022;6.818;2023-02-28T16:46:17;5.20;72.50
6407;DHT22;3236;51.022;6.818;2023-02-28T16:48:45;5.30;73.30
6407;DHT22;3236;51.022;6.818;2023-02-28T16:51:15;5.20;72.80
6407;DHT22;3236;51.022;6.818;2023-02-28T16:53:43;5.30;73.70
6407;DHT22;3236;51.022;6.818;2023-02-28T16:56:16;5.00;69.40
6407;DHT22;3236;51.022;6.818;2023-02-28T16:58:44;5.00;69.90
6407;DHT22;3236;51.022;6.818;2023-02-28T17:01:11;5.00;71.90
6407;DHT22;3236;51.022;6.818;2023-02-28T17:03:40;4.80;75.10
6407;DHT22;3236;51.022;6.818;2023-02-28T17:06:17;4.50;81.10
6407;DHT22;3236;51.022;6.818;2023-02-28T17:08:44;4.40;81.60
6407;DHT22;3236;51.022;6.818;2023-02-28T17:11:11;4.50;76.90
6407;DHT22;3236;51.022;6.818;2023-02-28T17:13:38;4.40;84.80
6407;DHT22;3236;51.022;6.818;2023-02-28T17:16:07;4.60;85.30
6407;DHT22;3236;51.022;6.818;2023-02-28T17:18:36;4.30;85.70
6407;DHT22;3236;51.022;6.818;2023-02-28T17:21:12;4.20;86.60
6407;DHT22;3236;51.022;6.818;2023-02-28T17:23:39;4.40;87.40
6407;DHT22;3236;51.022;6.818;2023-02-28T17:26:08;3.80;87.80
6407;DHT22;3236;51.022;6.818;2023-02-28T17:28:36;4.30;83.60
6407;DHT22;3236;51.022;6.818;2023-02-28T17:31:08;3.90;90.30
6407;DHT22;3236;51.022;6.818;2023-02-28T17:33:35;4.00;91.00
6407;DHT22;3236;51.022;6.818;2023-02-28T17:36:04;3.80;91.50
6407;DHT22;3236;51.022;6.818;2023-02-28T17:38:35;4.10;91.90
6407;DHT22;3236;51.022;6.818;2023-02-28T17:41:03;3.70;92.40
6407;DHT22;3236;51.022;6.818;2023-02-28T17:43:30;3.70;90.70
6407;DHT22;3236;51.022;6.818;2023-02-28T17:48:28;3.90;94.40
6407;DHT22;3236;51.022;6.818;2023-02-28T17:50:56;3.60;92.30
6407;DHT22;3236;51.022;6.818;2023-02-28T17:53:23;3.20;95.20
6407;DHT22;3236;51.022;6.818;2023-02-28T18:00:52;3.40;94.60
6407;DHT22;3236;51.022;6.818;2023-02-28T18:03:26;3.30;97.80
6407;DHT22;3236;51.022;6.818;2023-02-28T18:05:56;3.10;98.10
6407;DHT22;3236;51.022;6.818;2023-02-28T18:08:23;2.90;98.50
6407;DHT22;3236;51.022;6.818;2023-02-28T18:10:51;3.20;96.40
6407;DHT22;3236;51.022;6.818;2023-02-28T18:13:19;3.20;99.40
6407;DHT22;3236;51.022;6.818;2023-02-28T18:20:41;2.70;99.90
6407;DHT22;3236;51.022;6.818;2023-02-28T18:23:08;1.40;98.00
6407;DHT22;3236;51.022;6.818;2023-02-28T18:28:04;3.10;99.90
6407;DHT22;3236;51.022;6.818;2023-02-28T18:30:36;2.90;99.90
6407;DHT22;3236;51.022;6.818;2023-02-28T18:33:04;3.00;99.90
6407;DHT22;3236;51.022;6.818;2023-02-28T18:35:33;3.10;99.90
6407;DHT22;3236;51.022;6.818;2023-02-28T18:38:02;2.80;99.90
6407;DHT22;3236;51.022;6.818;2023-02-28T18:40:29;2.70;99.90
6407;DHT22;3236;51.022;6.818;2023-02-28T18:42:56;2.40;99.90
6407;DHT22;3236;51.022;6.818;2023-02-28T18:45:23;2.70;99.90
6407;DHT22;3236;51.022;6.818;2023-02-28T18:47:53;2.60;99.90
6407;DHT22;3236;51.022;6.818;2023-02-28T18:50:20;2.70;99.90
6407;DHT22;3236;51.022;6.818;2023-02-28T18:52:47;2.70;99.90
6407;DHT22;3236;51.022;6.818;2023-02-28T18:55:15;2.30;99.90
6407;DHT22;3236;51.022;6.818;2023-02-28T18:57:45;3.00;99.90
6407;DHT22;3236;51.022;6.818;2023-02-28T19:00:14;2.50;99.90
6407;DHT22;3236;51.022;6.818;2023-02-28T19:02:44;2.60;99.90
6407;DHT22;3236;51.022;6.818;2023-02-28T19:05:16;2.40;99.90
6407;DHT22;3236;51.022;6.818;2023-02-28T19:10:16;2.40;99.90
6407;DHT22;3236;51.022;6.818;2023-02-28T19:12:43;2.50;99.90
6407;DHT22;3236;51.022;6.818;2023-02-28T19:15:11;2.30;99.90
6407;DHT22;3236;51.022;6.818;2023-02-28T19:17:39;2.10;99.90
6407;DHT22;3236;51.022;6.818;2023-02-28T19:20:07;2.00;99.90
6407;DHT22;3236;51.022;6.818;2023-02-28T19:22:39;2.10;99.90
6407;DHT22;3236;51.022;6.818;2023-02-28T19:25:07;2.10;99.90
6407;DHT22;3236;51.022;6.818;2023-02-28T19:27:34;2.00;99.90
6407;DHT22;3236;51.022;6.818;2023-02-28T19:30:02;1.70;99.90
6407;DHT22;3236;51.022;6.818;2023-02-28T19:32:31;2.30;99.90
6407;DHT22;3236;51.022;6.818;2023-02-28T19:34:58;1.70;99.90
6407;DHT22;3236;51.022;6.818;2023-02-28T19:39:53;1.90;99.90
6407;DHT22;3236;51.022;6.818;2023-02-28T19:42:21;1.90;99.90
6407;DHT22;3236;51.022;6.818;2023-02-28T19:44:48;1.70;99.90
6407;DHT22;3236;51.022;6.818;2023-02-28T19:47:16;1.60;99.90
6407;DHT22;3236;51.022;6.818;2023-02-28T19:49:43;1.30;99.90